Time;durP1;ratioP1;P1;durP2;ratioP2;P2;SDS_P1;SDS_P2;PMS_P1;PMS_P2;Temp;Humidity;BMP_temperature;BMP_pressure;BME280_temperature;BME280_humidity;BME280_pressure;Samples;Min_cycle;Max_cycle;Signal;HPM_P1;HPM_P2
2022/08/16 00:00:15;;;;;;;;;;;;;;;23.56;47.47;100020.38;5070300;28;973;-36
2022/08/16 00:02:41;;;;;;;;;;;;;;;24.42;41.92;100023.94;5073542;28;1108;-35
2022/08/16 00:05:07;;;;;;;;;;;;;;;22.12;45.94;100021.88;5071900;28;1123;-36
2022/08/16 00:07:32;;;;;;;;;;;;;;;20.02;54.21;100021.81;5074821;28;1087;-36
2022/08/16 00:09:58;;;;;;;;;;;;;;;22.58;47.94;100028.53;5075127;28;1973;-36
2022/08/16 00:12:23;;;;;;;;;;;;;;;23.44;47.48;100033.34;5069655;28;950;-36
2022/08/16 00:14:48;;;;;;;;;;;;;;;24.36;42.80;100031.94;5050856;28;1081;-36
2022/08/16 00:17:14;;;;;;;;;;;;;;;24.48;43.38;100040.38;5067135;28;1041;-35
2022/08/16 00:19:39;;;;;;;;;;;;;;;24.75;43.16;100046.16;5071534;28;996;-36
2022/08/16 00:22:04;;;;;;;;;;;;;;;24.72;42.25;100047.38;5068252;28;1155;-35
2022/08/16 00:24:30;;;;;;;;;;;;;;;24.51;44.55;100043.53;5068372;28;965;-36
2022/08/16 00:26:55;;;;;;;;;;;;;;;20.35;53.15;100042.69;5071710;28;2417;-36
2022/08/16 00:29:20;;;;;;;;;;;;;;;21.34;53.07;100041.59;5074358;28;1910;-36
2022/08/16 00:31:46;;;;;;;;;;;;;;;23.52;45.42;100048.59;5075874;28;1160;-36
2022/08/16 00:34:12;;;;;;;;;;;;;;;24.06;44.03;100052.28;5079894;28;945;-36
2022/08/16 00:36:37;;;;;;;;;;;;;;;24.06;46.84;100060.34;5048796;28;949;-37
2022/08/16 00:39:02;;;;;;;;;;;;;;;20.40;53.26;100050.22;5068953;28;1088;-37
2022/08/16 00:41:28;;;;;;;;;;;;;;;20.98;55.05;100055.97;5074503;28;1125;-36
2022/08/16 00:43:53;;;;;;;;;;;;;;;23.33;45.38;100052.50;5075691;28;973;-36
2022/08/16 00:46:27;;;;;;;;;;;;;;;23.86;45.33;100054.59;5068977;28;949;-37
2022/08/16 00:48:52;;;;;;;;;;;;;;;24.02;47.49;100052.81;5063991;28;1134;-37
2022/08/16 00:51:18;;;;;;;;;;;;;;;20.65;52.75;100053.91;5070632;28;1897;-37
2022/08/16 00:53:43;;;;;;;;;;;;;;;20.46;57.42;100051.41;5074232;28;1040;-36
2022/08/16 00:56:10;;;;;;;;;;;;;;;23.03;47.11;100055.81;5073472;28;2393;-36
2022/08/16 00:58:36;;;;;;;;;;;;;;;23.79;46.10;100059.84;5076040;28;973;-37
2022/08/16 01:01:03;;;;;;;;;;;;;;;24.36;46.22;100062.31;5055692;28;1019;-37
2022/08/16 01:03:28;;;;;;;;;;;;;;;20.56;52.31;100052.16;5076812;28;1119;-36
2022/08/16 01:05:53;;;;;;;;;;;;;;;20.69;55.43;100059.78;5060921;28;1165;-36
2022/08/16 01:08:19;;;;;;;;;;;;;;;23.22;45.95;100051.06;5057575;28;933;-37
2022/08/16 01:10:44;;;;;;;;;;;;;;;23.79;45.17;100054.47;5051940;28;1984;-36
2022/08/16 01:13:11;;;;;;;;;;;;;;;24.30;45.51;100049.59;5049117;28;937;-37
2022/08/16 01:15:37;;;;;;;;;;;;;;;24.65;42.59;100051.81;5071849;28;953;-36
2022/08/16 01:18:03;;;;;;;;;;;;;;;24.40;44.85;100049.34;5057585;28;1041;-36
2022/08/16 01:20:28;;;;;;;;;;;;;;;24.78;41.67;100049.31;5054757;28;1238;-37
2022/08/16 01:23:29;;;;;;;;;;;;;;;21.62;49.61;100043.22;5058580;28;1209;-37
2022/08/16 01:25:55;;;;;;;;;;;;;;;19.81;58.54;100040.81;4959903;28;1833;-36
2022/08/16 01:28:20;;;;;;;;;;;;;;;22.52;48.65;100043.47;5033499;28;1140;-36
2022/08/16 01:30:47;;;;;;;;;;;;;;;23.40;48.01;100053.53;5072075;28;2009;-36
2022/08/16 01:33:12;;;;;;;;;;;;;;;24.42;43.16;100052.69;5054686;28;969;-36
2022/08/16 01:35:51;;;;;;;;;;;;;;;21.46;50.29;100055.53;5068445;28;1172;-36
2022/08/16 01:38:21;;;;;;;;;;;;;;;19.85;58.33;100057.38;5058658;28;859;-36
2022/08/16 01:40:47;;;;;;;;;;;;;;;22.72;48.18;100056.56;5070648;28;1179;-36
2022/08/16 01:43:13;;;;;;;;;;;;;;;23.49;47.48;100054.28;5068803;28;1036;-37
2022/08/16 01:45:38;;;;;;;;;;;;;;;24.38;42.61;100054.06;5073498;28;885;-37
2022/08/16 01:48:03;;;;;;;;;;;;;;;21.72;47.78;100035.84;5069540;28;1104;-37
2022/08/16 01:50:29;;;;;;;;;;;;;;;19.62;55.63;100036.44;5071350;28;1898;-36
2022/08/16 01:52:54;;;;;;;;;;;;;;;21.80;51.62;100045.78;5054595;28;1195;-36
2022/08/16 01:55:20;;;;;;;;;;;;;;;23.26;49.65;100044.31;5075860;28;1023;-36
2022/08/16 01:57:45;;;;;;;;;;;;;;;24.14;44.28;100039.81;5074632;28;2358;-36
2022/08/16 02:00:11;;;;;;;;;;;;;;;23.35;42.82;100048.66;5076599;28;1020;-36
2022/08/16 02:02:36;;;;;;;;;;;;;;;19.55;55.21;100034.34;5073122;28;903;-35
2022/08/16 02:05:02;;;;;;;;;;;;;;;22.02;50.65;100030.91;5067216;28;942;-35
2022/08/16 02:07:27;;;;;;;;;;;;;;;23.21;49.00;100035.94;5052619;28;1044;-35
2022/08/16 02:09:53;;;;;;;;;;;;;;;24.14;43.70;100032.56;5070289;28;1967;-36
2022/08/16 02:12:18;;;;;;;;;;;;;;;24.09;45.07;100029.56;5071333;28;1016;-36
2022/08/16 02:14:43;;;;;;;;;;;;;;;24.68;42.69;100033.47;5070606;28;978;-35
2022/08/16 02:17:09;;;;;;;;;;;;;;;21.27;50.81;100030.69;5072561;28;1016;-36
2022/08/16 02:19:35;;;;;;;;;;;;;;;19.72;57.90;100039.06;5075737;28;1059;-36
2022/08/16 02:22:00;;;;;;;;;;;;;;;22.43;49.32;100036.44;5057455;28;1168;-36
2022/08/16 02:24:26;;;;;;;;;;;;;;;23.21;49.14;100039.47;5077074;28;1056;-36
2022/08/16 02:26:51;;;;;;;;;;;;;;;24.23;43.48;100041.44;5068260;28;2331;-36
2022/08/16 02:29:19;;;;;;;;;;;;;;;21.52;48.97;100035.31;5067406;28;1901;-36
2022/08/16 02:31:45;;;;;;;;;;;;;;;19.93;56.89;100044.09;5071250;28;977;-36
2022/08/16 02:34:11;;;;;;;;;;;;;;;22.54;49.16;100044.13;5068594;28;1108;-36
2022/08/16 02:36:36;;;;;;;;;;;;;;;23.35;48.77;100047.81;5073584;28;981;-36
2022/08/16 02:39:02;;;;;;;;;;;;;;;24.32;43.55;100043.03;5070524;28;1187;-36
2022/08/16 02:41:27;;;;;;;;;;;;;;;22.26;45.59;100045.31;5074987;28;936;-36
2022/08/16 02:43:52;;;;;;;;;;;;;;;19.80;55.36;100045.28;5070578;28;1150;-36
2022/08/16 02:46:17;;;;;;;;;;;;;;;22.27;50.15;100044.31;5069581;28;1135;-36
2022/08/16 02:48:43;;;;;;;;;;;;;;;23.21;49.48;100058.25;5074071;28;1060;-36
2022/08/16 02:51:08;;;;;;;;;;;;;;;24.17;43.87;100055.59;5070084;28;1906;-36
2022/08/16 02:53:34;;;;;;;;;;;;;;;23.79;42.78;100051.78;5075120;28;1012;-36
2022/08/16 02:55:59;;;;;;;;;;;;;;;20.01;54.19;100051.34;5075268;28;2353;-35
2022/08/16 02:58:24;;;;;;;;;;;;;;;22.06;51.10;100043.97;5076178;28;1064;-35
2022/08/16 03:00:50;;;;;;;;;;;;;;;23.26;49.56;100047.00;5070611;28;996;-36
2022/08/16 03:03:15;;;;;;;;;;;;;;;24.11;43.54;100040.97;5066187;28;858;-35
2022/08/16 03:05:40;;;;;;;;;;;;;;;23.55;43.32;100045.56;5070312;28;985;-36
2022/08/16 03:08:06;;;;;;;;;;;;;;;19.90;54.83;100036.41;5070216;28;965;-36
2022/08/16 03:10:31;;;;;;;;;;;;;;;21.85;51.45;100035.44;5070690;28;1910;-36
2022/08/16 03:12:58;;;;;;;;;;;;;;;23.19;49.42;100037.97;5074004;28;996;-36
2022/08/16 03:15:24;;;;;;;;;;;;;;;24.07;44.74;100035.13;5070398;28;941;-35
2022/08/16 03:17:49;;;;;;;;;;;;;;;23.92;46.52;100039.63;5075128;28;928;-35
2022/08/16 03:20:15;;;;;;;;;;;;;;;23.18;47.20;100037.13;5074831;28;1226;-36
2022/08/16 03:22:40;;;;;;;;;;;;;;;24.04;44.44;100037.38;5068144;28;1000;-36
2022/08/16 03:25:06;;;;;;;;;;;;;;;24.62;44.56;100041.44;5067379;28;964;-36
2022/08/16 03:27:32;;;;;;;;;;;;;;;24.53;44.98;100043.34;5067944;28;1854;-36
2022/08/16 03:30:01;;;;;;;;;;;;;;;24.62;44.80;100049.50;5064265;28;1890;-35
2022/08/16 03:32:27;;;;;;;;;;;;;;;24.69;44.51;100053.13;5072945;28;957;-35
2022/08/16 03:34:52;;;;;;;;;;;;;;;24.59;44.26;100045.28;5071386;28;1218;-35
2022/08/16 03:37:17;;;;;;;;;;;;;;;24.61;45.41;100039.75;5074127;28;956;-35
2022/08/16 03:39:43;;;;;;;;;;;;;;;24.75;45.24;100038.09;5070850;28;910;-35
2022/08/16 03:42:08;;;;;;;;;;;;;;;24.86;43.48;100042.19;5075840;28;969;-36
2022/08/16 03:44:33;;;;;;;;;;;;;;;24.86;43.63;100045.72;5069756;28;1135;-35
2022/08/16 03:46:59;;;;;;;;;;;;;;;24.85;43.93;100051.28;5073955;28;1052;-35
2022/08/16 03:49:25;;;;;;;;;;;;;;;24.86;44.23;100052.97;5053638;28;1906;-35
2022/08/16 03:51:50;;;;;;;;;;;;;;;24.95;43.88;100054.56;5062290;28;1032;-35
2022/08/16 03:54:16;;;;;;;;;;;;;;;25.00;43.66;100040.53;5075389;28;1080;-35
2022/08/16 03:56:41;;;;;;;;;;;;;;;25.01;44.14;100051.13;5069100;28;1853;-35
2022/08/16 03:59:06;;;;;;;;;;;;;;;25.10;44.65;100051.88;5069216;28;1032;-35
2022/08/16 04:01:31;;;;;;;;;;;;;;;25.15;44.64;100060.22;5066661;28;1020;-35
2022/08/16 04:03:57;;;;;;;;;;;;;;;25.17;44.77;100066.22;5069955;28;1024;-36
2022/08/16 04:06:22;;;;;;;;;;;;;;;25.15;44.81;100064.75;5070129;28;1009;-38
2022/08/16 04:08:47;;;;;;;;;;;;;;;25.16;46.08;100074.50;5070635;28;997;-37
2022/08/16 04:11:13;;;;;;;;;;;;;;;25.85;44.58;100075.16;5068811;28;1903;-38
2022/08/16 04:13:38;;;;;;;;;;;;;;;25.84;44.57;100073.47;5071001;28;1187;-34
2022/08/16 04:16:04;;;;;;;;;;;;;;;26.02;44.14;100067.66;5071911;28;968;-34
2022/08/16 04:18:30;;;;;;;;;;;;;;;26.10;42.76;100072.09;5074676;28;1155;-34
2022/08/16 04:20:55;;;;;;;;;;;;;;;26.21;42.43;100067.22;5076080;28;961;-41
2022/08/16 04:23:21;;;;;;;;;;;;;;;26.00;43.94;100076.97;5050351;28;965;-34
2022/08/16 04:25:46;;;;;;;;;;;;;;;25.95;43.73;100077.53;5065324;28;1048;-33
2022/08/16 04:28:12;;;;;;;;;;;;;;;26.14;43.60;100076.06;5065982;28;2516;-32
2022/08/16 04:30:38;;;;;;;;;;;;;;;26.47;42.23;100073.88;5067412;28;1969;-32
2022/08/16 04:33:04;;;;;;;;;;;;;;;26.67;41.43;100070.50;5072591;28;996;-33
2022/08/16 04:35:29;;;;;;;;;;;;;;;26.67;40.70;100068.66;5070235;28;1088;-32
2022/08/16 04:37:54;;;;;;;;;;;;;;;26.74;40.79;100077.59;5054772;28;1009;-34
2022/08/16 04:40:20;;;;;;;;;;;;;;;26.78;40.01;100078.06;5073175;28;1096;-34
2022/08/16 04:42:45;;;;;;;;;;;;;;;26.77;39.81;100077.22;5072006;28;1001;-34
2022/08/16 04:45:12;;;;;;;;;;;;;;;26.83;39.68;100080.16;5059679;28;976;-32
2022/08/16 04:47:37;;;;;;;;;;;;;;;26.82;38.71;100067.69;5072149;28;1099;-33
2022/08/16 04:50:07;;;;;;;;;;;;;;;26.90;39.48;100063.00;5072263;28;1902;-31
2022/08/16 04:52:32;;;;;;;;;;;;;;;26.92;39.42;100072.75;5074701;28;1088;-33
2022/08/16 04:54:57;;;;;;;;;;;;;;;26.94;39.37;100068.00;5069372;28;1163;-33
2022/08/16 04:57:23;;;;;;;;;;;;;;;26.99;38.82;100071.75;5068137;28;2533;-32
2022/08/16 04:59:48;;;;;;;;;;;;;;;27.03;38.50;100074.91;5066223;28;1024;-30
2022/08/16 05:02:13;;;;;;;;;;;;;;;26.95;38.02;100067.78;5067108;28;952;-33
2022/08/16 05:04:38;;;;;;;;;;;;;;;27.00;37.67;100065.34;5068554;28;1048;-35
2022/08/16 05:07:04;;;;;;;;;;;;;;;26.95;38.13;100065.09;5064869;28;1067;-31
2022/08/16 05:09:29;;;;;;;;;;;;;;;27.02;38.71;100075.97;5054571;28;1910;-31
2022/08/16 05:11:54;;;;;;;;;;;;;;;27.05;38.01;100072.84;5071987;28;1135;-35
2022/08/16 05:14:20;;;;;;;;;;;;;;;27.07;38.06;100073.50;5072039;28;973;-33
2022/08/16 05:16:45;;;;;;;;;;;;;;;27.06;38.02;100071.00;5071654;28;1172;-34
2022/08/16 05:19:10;;;;;;;;;;;;;;;27.09;37.34;100066.00;5072418;28;961;-32
2022/08/16 05:21:37;;;;;;;;;;;;;;;27.14;37.61;100065.44;5072090;28;965;-35
2022/08/16 05:24:02;;;;;;;;;;;;;;;27.18;37.93;100074.78;5070387;28;1012;-31
2022/08/16 05:26:28;;;;;;;;;;;;;;;27.20;38.43;100069.19;5071255;28;2287;-33
2022/08/16 05:28:54;;;;;;;;;;;;;;;27.27;38.00;100070.06;5071905;28;1163;-31
2022/08/16 05:31:19;;;;;;;;;;;;;;;27.28;37.94;100074.41;5076047;28;1905;-34
2022/08/16 05:33:45;;;;;;;;;;;;;;;27.34;38.15;100073.59;5074650;28;1171;-35
2022/08/16 05:36:10;;;;;;;;;;;;;;;27.26;38.92;100060.28;5077152;28;1513;-33
2022/08/16 05:38:35;;;;;;;;;;;;;;;27.38;38.68;100069.47;5063464;28;1146;-38
2022/08/16 05:41:01;;;;;;;;;;;;;;;27.30;38.63;100061.56;5075747;28;1004;-33
2022/08/16 05:43:26;;;;;;;;;;;;;;;27.18;38.19;100073.94;5073288;28;1123;-34
2022/08/16 05:45:52;;;;;;;;;;;;;;;27.24;39.75;100075.88;5075973;28;1037;-35
2022/08/16 05:48:17;;;;;;;;;;;;;;;27.54;39.43;100077.44;5057081;28;1005;-38
2022/08/16 05:50:42;;;;;;;;;;;;;;;27.50;39.83;100069.75;5073475;28;1905;-31
2022/08/16 05:53:08;;;;;;;;;;;;;;;27.62;40.30;100078.09;5065770;28;937;-33
2022/08/16 05:55:33;;;;;;;;;;;;;;;27.76;39.82;100078.16;5070571;28;1322;-35
2022/08/16 05:57:59;;;;;;;;;;;;;;;27.87;39.52;100072.16;5072088;28;2070;-35
2022/08/16 06:00:24;;;;;;;;;;;;;;;27.96;40.02;100080.91;5074704;28;1333;-32
2022/08/16 06:02:49;;;;;;;;;;;;;;;27.96;39.78;100083.59;5067274;28;965;-29
2022/08/16 06:05:15;;;;;;;;;;;;;;;27.99;40.18;100080.47;5066423;28;957;-33
2022/08/16 06:07:40;;;;;;;;;;;;;;;28.03;40.41;100080.09;5055289;28;1159;-30
2022/08/16 06:10:06;;;;;;;;;;;;;;;28.02;39.95;100081.97;5071510;28;1913;-35
2022/08/16 06:12:31;;;;;;;;;;;;;;;28.09;39.32;100074.66;5070921;28;1087;-32
2022/08/16 06:14:58;;;;;;;;;;;;;;;28.16;39.93;100077.38;5072444;28;1001;-30
2022/08/16 06:17:23;;;;;;;;;;;;;;;28.16;39.08;100080.09;5072841;28;1143;-31
2022/08/16 06:19:49;;;;;;;;;;;;;;;28.20;38.63;100078.66;5075770;28;1040;-33
2022/08/16 06:22:14;;;;;;;;;;;;;;;28.26;39.36;100073.47;5075751;28;1151;-32
2022/08/16 06:24:39;;;;;;;;;;;;;;;28.23;38.94;100074.69;5077791;28;969;-32
2022/08/16 06:27:04;;;;;;;;;;;;;;;28.32;39.08;100072.63;5068235;28;2383;-30
2022/08/16 06:29:30;;;;;;;;;;;;;;;28.33;38.81;100079.72;5066972;28;1957;-32
2022/08/16 06:31:55;;;;;;;;;;;;;;;28.33;39.37;100069.75;5072323;28;980;-32
2022/08/16 06:34:21;;;;;;;;;;;;;;;28.14;39.41;100079.47;5069170;28;1478;-36
2022/08/16 06:36:46;;;;;;;;;;;;;;;28.16;39.05;100085.50;5073820;28;1000;-33
2022/08/16 06:39:11;;;;;;;;;;;;;;;28.00;38.87;100086.72;5069965;28;1131;-34
2022/08/16 06:41:37;;;;;;;;;;;;;;;28.06;38.39;100083.19;5075726;28;1044;-32
2022/08/16 06:44:02;;;;;;;;;;;;;;;27.95;38.79;100079.25;5075945;28;1079;-34
2022/08/16 06:46:32;;;;;;;;;;;;;;;28.15;38.17;100085.72;5070745;28;1159;-33
2022/08/16 06:48:58;;;;;;;;;;;;;;;28.02;38.70;100076.56;5071074;28;1060;-35
2022/08/16 06:51:23;;;;;;;;;;;;;;;28.44;38.93;100080.97;5065901;28;1894;-32
2022/08/16 06:53:49;;;;;;;;;;;;;;;28.56;38.46;100073.88;5053655;28;1117;-34
2022/08/16 06:56:14;;;;;;;;;;;;;;;28.66;38.37;100075.34;5069801;28;1797;-34
2022/08/16 06:58:39;;;;;;;;;;;;;;;28.59;38.51;100069.94;5072355;28;1099;-32
2022/08/16 07:01:05;;;;;;;;;;;;;;;28.28;37.67;100068.69;5074024;28;1033;-35
2022/08/16 07:03:30;;;;;;;;;;;;;;;27.99;37.48;100061.56;5055074;28;1260;-31
2022/08/16 07:05:56;;;;;;;;;;;;;;;27.76;37.60;100061.94;5075898;28;953;-33
2022/08/16 07:08:22;;;;;;;;;;;;;;;27.68;37.46;100067.50;5076265;28;1167;-33
2022/08/16 07:10:47;;;;;;;;;;;;;;;27.60;37.19;100065.81;5070189;28;1910;-34
2022/08/16 07:13:13;;;;;;;;;;;;;;;27.49;37.30;100065.34;5065549;28;1356;-32
2022/08/16 07:15:39;;;;;;;;;;;;;;;27.77;36.85;100068.19;5068139;28;1009;-32
2022/08/16 07:18:05;;;;;;;;;;;;;;;27.85;36.26;100057.19;5072319;28;1079;-35
2022/08/16 07:20:30;;;;;;;;;;;;;;;27.72;36.42;100066.09;5069072;28;1032;-33
2022/08/16 07:22:56;;;;;;;;;;;;;;;27.90;35.82;100060.09;5073723;28;1001;-30
2022/08/16 07:25:21;;;;;;;;;;;;;;;28.10;35.48;100067.41;5072158;28;1194;-32
2022/08/16 07:27:46;;;;;;;;;;;;;;;28.27;35.07;100069.69;5070380;28;2633;-32
2022/08/16 07:30:12;;;;;;;;;;;;;;;28.27;35.05;100067.00;5074690;28;1898;-33
2022/08/16 07:32:37;;;;;;;;;;;;;;;27.99;35.23;100053.44;5076468;28;965;-33
2022/08/16 07:35:03;;;;;;;;;;;;;;;27.80;35.96;100054.25;5070180;28;1036;-32
2022/08/16 07:37:28;;;;;;;;;;;;;;;27.66;36.04;100047.97;5065532;28;1163;-30
2022/08/16 07:39:54;;;;;;;;;;;;;;;27.54;36.38;100055.81;5065462;28;1048;-30
2022/08/16 07:42:19;;;;;;;;;;;;;;;27.71;36.82;100046.34;5050267;28;1200;-31
2022/08/16 07:44:44;;;;;;;;;;;;;;;28.11;35.41;100056.38;5064157;28;1044;-28
2022/08/16 07:47:10;;;;;;;;;;;;;;;28.18;35.49;100045.56;5070215;28;997;-28
2022/08/16 07:49:35;;;;;;;;;;;;;;;28.06;35.59;100049.94;5067115;28;1898;-30
2022/08/16 07:52:00;;;;;;;;;;;;;;;28.05;35.67;100048.25;5068820;28;1004;-32
2022/08/16 07:54:26;;;;;;;;;;;;;;;28.19;35.85;100044.53;5070039;28;1136;-29
2022/08/16 07:56:51;;;;;;;;;;;;;;;28.13;35.85;100039.13;5071101;28;2411;-31
2022/08/16 07:59:16;;;;;;;;;;;;;;;28.23;35.58;100047.66;5073213;28;1068;-29
2022/08/16 08:01:42;;;;;;;;;;;;;;;28.19;35.48;100043.72;5073359;28;1056;-30
2022/08/16 08:04:11;;;;;;;;;;;;;;;28.20;35.86;100045.34;5073049;28;1091;-31
2022/08/16 08:06:37;;;;;;;;;;;;;;;28.15;36.01;100048.69;5072120;28;870;-32
2022/08/16 08:09:02;;;;;;;;;;;;;;;28.15;36.08;100043.28;5061150;28;949;-31
2022/08/16 08:11:28;;;;;;;;;;;;;;;28.14;36.02;100041.63;5068684;28;1925;-31
2022/08/16 08:13:53;;;;;;;;;;;;;;;28.20;36.09;100039.94;5067981;28;1020;-30
2022/08/16 08:16:20;;;;;;;;;;;;;;;28.19;36.19;100043.72;5067951;28;1103;-32
2022/08/16 08:18:46;;;;;;;;;;;;;;;28.15;36.32;100054.09;5051233;28;1237;-32
2022/08/16 08:21:11;;;;;;;;;;;;;;;28.12;36.47;100049.09;5073762;28;1055;-29
2022/08/16 08:23:37;;;;;;;;;;;;;;;28.20;36.26;100043.50;5072365;28;1071;-31
2022/08/16 08:26:03;;;;;;;;;;;;;;;28.15;36.40;100048.69;5073661;28;1842;-30
2022/08/16 08:28:29;;;;;;;;;;;;;;;28.17;36.23;100043.06;5063475;28;1089;-29
2022/08/16 08:30:54;;;;;;;;;;;;;;;28.19;35.66;100041.00;5064587;28;1902;-31
2022/08/16 08:33:20;;;;;;;;;;;;;;;28.28;35.81;100042.44;5065696;28;907;-29
2022/08/16 08:35:45;;;;;;;;;;;;;;;28.29;36.12;100036.00;5073434;28;981;-28
2022/08/16 08:38:10;;;;;;;;;;;;;;;28.19;36.44;100039.13;5068491;28;1198;-31
2022/08/16 08:40:36;;;;;;;;;;;;;;;28.21;36.47;100037.03;5069068;28;1034;-29
2022/08/16 08:43:01;;;;;;;;;;;;;;;28.13;36.34;100039.13;5063183;28;1008;-31
2022/08/16 08:45:27;;;;;;;;;;;;;;;28.18;36.62;100039.31;5066797;28;969;-32
2022/08/16 08:47:55;;;;;;;;;;;;;;;28.20;36.51;100039.94;5064159;28;997;-32
2022/08/16 08:50:20;;;;;;;;;;;;;;;27.74;37.15;100031.59;5072008;28;1981;-33
2022/08/16 08:52:46;;;;;;;;;;;;;;;27.87;36.50;100034.31;5069653;28;1024;-31
2022/08/16 08:55:12;;;;;;;;;;;;;;;27.95;37.24;100035.16;5076776;28;993;-31
2022/08/16 08:57:39;;;;;;;;;;;;;;;28.08;37.08;100026.22;5076697;28;2489;-31
2022/08/16 09:00:05;;;;;;;;;;;;;;;28.06;37.12;100021.00;5077631;28;1179;-29
2022/08/16 09:02:30;;;;;;;;;;;;;;;28.10;36.99;100021.44;5073077;28;1036;-29
2022/08/16 09:04:56;;;;;;;;;;;;;;;27.98;37.52;100026.63;5063179;28;1032;-35
2022/08/16 09:07:21;;;;;;;;;;;;;;;27.68;37.16;100021.56;5070866;28;961;-32
2022/08/16 09:09:46;;;;;;;;;;;;;;;27.60;37.57;100012.63;5072051;28;1910;-31
2022/08/16 09:12:12;;;;;;;;;;;;;;;27.55;37.83;100022.38;5072893;28;976;-31
2022/08/16 09:14:38;;;;;;;;;;;;;;;27.50;37.82;100018.41;5075992;28;1068;-34
2022/08/16 09:17:04;;;;;;;;;;;;;;;27.54;37.51;100013.44;5069952;28;1214;-32
2022/08/16 09:19:29;;;;;;;;;;;;;;;27.46;37.44;100017.16;5076945;28;1522;-31
2022/08/16 09:21:55;;;;;;;;;;;;;;;27.63;37.79;100023.00;5076994;28;1154;-30
2022/08/16 09:24:20;;;;;;;;;;;;;;;27.57;37.55;100004.09;5079028;28;989;-34
2022/08/16 09:26:45;;;;;;;;;;;;;;;27.62;37.66;100010.56;5066131;28;1867;-35
2022/08/16 09:29:11;;;;;;;;;;;;;;;27.66;36.46;100007.44;5067292;28;891;-32
2022/08/16 09:31:36;;;;;;;;;;;;;;;27.42;37.50;100006.97;5073582;28;1890;-30
2022/08/16 09:34:02;;;;;;;;;;;;;;;27.36;37.41;100000.50;5070253;28;1202;-31
2022/08/16 09:36:28;;;;;;;;;;;;;;;27.36;37.82;100003.22;5074952;28;1076;-34
2022/08/16 09:38:53;;;;;;;;;;;;;;;27.58;37.69;100011.97;5054080;28;1175;-34
2022/08/16 09:41:18;;;;;;;;;;;;;;;27.63;37.13;100009.50;5075820;28;811;-33
2022/08/16 09:43:44;;;;;;;;;;;;;;;27.64;37.40;100002.25;5072236;28;1032;-30
2022/08/16 09:46:09;;;;;;;;;;;;;;;27.66;37.30;100004.75;5070924;28;1159;-32
2022/08/16 09:48:36;;;;;;;;;;;;;;;27.68;37.35;100006.22;5076384;28;989;-32
2022/08/16 09:51:01;;;;;;;;;;;;;;;27.74;37.27;100002.69;5068649;28;1901;-33
2022/08/16 09:53:29;;;;;;;;;;;;;;;27.80;36.86;100006.44;5073242;28;949;-31
2022/08/16 09:55:54;;;;;;;;;;;;;;;27.84;36.92;100010.38;5077306;28;1872;-32
2022/08/16 09:58:22;;;;;;;;;;;;;;;27.24;37.42;99890.38;5048847;28;1078;-34
2022/08/16 10:00:48;;;;;;;;;;;;;;;27.89;37.58;100003.53;5071471;28;1139;-34
2022/08/16 10:03:13;;;;;;;;;;;;;;;27.72;36.73;100007.47;5068085;28;958;-33
2022/08/16 10:05:38;;;;;;;;;;;;;;;27.79;36.69;100001.25;5070069;28;957;-30
2022/08/16 10:08:04;;;;;;;;;;;;;;;27.64;37.06;99996.84;5072720;28;1106;-29
2022/08/16 10:10:29;;;;;;;;;;;;;;;27.69;36.82;99999.78;5052743;28;1977;-32
2022/08/16 10:13:13;;;;;;;;;;;;;;;27.80;37.42;99994.78;5071726;28;1013;-32
2022/08/16 10:15:39;;;;;;;;;;;;;;;28.01;37.22;99993.75;5074733;28;953;-30
2022/08/16 10:18:06;;;;;;;;;;;;;;;27.88;37.01;99991.91;5054376;28;1135;-31
2022/08/16 10:20:33;;;;;;;;;;;;;;;27.73;37.96;99992.94;5075559;28;1604;-35
2022/08/16 10:22:58;;;;;;;;;;;;;;;28.04;38.05;99996.09;5076582;28;1016;-32
2022/08/16 10:25:23;;;;;;;;;;;;;;;28.09;36.24;99993.56;5076656;28;1095;-30
2022/08/16 10:27:49;;;;;;;;;;;;;;;28.21;36.35;100004.59;5067003;28;2407;-32
2022/08/16 10:30:14;;;;;;;;;;;;;;;28.43;35.97;100003.56;5067521;28;1905;-29
2022/08/16 10:32:40;;;;;;;;;;;;;;;28.57;36.87;99996.25;5070884;28;969;-32
2022/08/16 10:35:05;;;;;;;;;;;;;;;28.42;36.39;100004.59;5071420;28;1083;-32
2022/08/16 10:37:31;;;;;;;;;;;;;;;28.42;36.79;100000.03;5071674;28;1071;-28
2022/08/16 10:39:56;;;;;;;;;;;;;;;28.44;36.21;100008.78;5056087;28;998;-30
2022/08/16 10:42:21;;;;;;;;;;;;;;;28.51;36.27;100005.22;5067775;28;1150;-31
2022/08/16 10:44:47;;;;;;;;;;;;;;;28.28;36.71;100012.69;5071839;28;1167;-30
2022/08/16 10:47:12;;;;;;;;;;;;;;;28.36;37.20;100015.22;5074996;28;1500;-32
2022/08/16 10:49:37;;;;;;;;;;;;;;;28.41;36.39;100014.59;5054423;28;1961;-32
2022/08/16 10:52:03;;;;;;;;;;;;;;;28.34;36.08;100016.47;5052175;28;1299;-30
2022/08/16 10:54:28;;;;;;;;;;;;;;;28.39;37.02;100013.16;5048873;28;1334;-31
2022/08/16 10:56:54;;;;;;;;;;;;;;;28.48;36.41;100009.16;5045626;28;2382;-31
2022/08/16 10:59:20;;;;;;;;;;;;;;;28.53;36.36;100012.06;5048474;28;1368;-30
2022/08/16 11:01:45;;;;;;;;;;;;;;;28.83;36.19;100013.47;5041063;28;1290;-29
2022/08/16 11:04:13;;;;;;;;;;;;;;;28.83;36.65;100014.31;5043843;28;1333;-30
2022/08/16 11:06:38;;;;;;;;;;;;;;;28.56;36.92;100014.34;5043716;28;1359;-31
2022/08/16 11:09:04;;;;;;;;;;;;;;;28.29;36.85;100006.28;5050966;28;1301;-30
2022/08/16 11:11:29;;;;;;;;;;;;;;;28.46;37.13;100014.78;5048149;28;1975;-32
2022/08/16 11:13:54;;;;;;;;;;;;;;;28.38;36.34;99997.97;5047224;28;1538;-32
2022/08/16 11:16:20;;;;;;;;;;;;;;;27.88;36.99;99997.31;5040951;28;1300;-32
2022/08/16 11:18:45;;;;;;;;;;;;;;;28.10;36.08;99999.81;5054862;28;1222;-28
2022/08/16 11:21:12;;;;;;;;;;;;;;;28.06;36.79;99998.56;5042097;28;1170;-31
2022/08/16 11:23:37;;;;;;;;;;;;;;;28.13;37.21;99998.56;5041495;28;1142;-29
2022/08/16 11:26:02;;;;;;;;;;;;;;;28.05;37.53;100005.00;5047482;28;2337;-30
2022/08/16 11:28:28;;;;;;;;;;;;;;;28.27;37.63;100005.63;5071099;28;1032;-31
2022/08/16 11:30:53;;;;;;;;;;;;;;;28.11;37.25;100001.50;5070597;28;1913;-29
2022/08/16 11:33:18;;;;;;;;;;;;;;;28.07;36.95;99994.81;5072064;28;1059;-32
2022/08/16 11:35:44;;;;;;;;;;;;;;;28.09;36.84;99984.63;5074602;28;1088;-32
2022/08/16 11:38:16;;;;;;;;;;;;;;;27.92;37.01;99979.66;5055404;28;1203;-30
2022/08/16 11:40:49;;;;;;;;;;;;;;;27.67;37.11;99979.38;5069411;28;1071;-33
2022/08/16 11:43:15;;;;;;;;;;;;;;;27.86;36.86;99986.69;5062614;28;998;-32
2022/08/16 11:45:41;;;;;;;;;;;;;;;27.69;37.34;99985.44;5074853;28;1410;-30
2022/08/16 11:48:06;;;;;;;;;;;;;;;27.94;36.35;99988.38;5074782;28;1166;-31
2022/08/16 11:50:32;;;;;;;;;;;;;;;27.73;36.91;99987.53;5075688;28;1898;-29
2022/08/16 11:52:58;;;;;;;;;;;;;;;27.81;36.71;99981.06;5066574;28;993;-30
2022/08/16 11:55:23;;;;;;;;;;;;;;;27.93;36.52;99984.00;5067902;28;918;-29
2022/08/16 11:57:49;;;;;;;;;;;;;;;27.99;36.21;99982.34;5069401;28;2508;-29
2022/08/16 12:00:15;;;;;;;;;;;;;;;27.89;37.02;99974.66;5058356;28;1072;-32
2022/08/16 12:02:41;;;;;;;;;;;;;;;28.14;36.06;99976.75;5050245;28;1143;-30
2022/08/16 12:05:06;;;;;;;;;;;;;;;27.90;36.38;99973.59;5044546;28;1309;-30
2022/08/16 12:07:32;;;;;;;;;;;;;;;27.84;36.38;99972.56;5061230;28;1024;-33
2022/08/16 12:09:57;;;;;;;;;;;;;;;27.86;36.33;99953.47;5073808;28;1963;-34
2022/08/16 12:12:22;;;;;;;;;;;;;;;27.69;36.81;99971.94;5065873;28;953;-29
2022/08/16 12:14:48;;;;;;;;;;;;;;;27.69;36.69;99966.53;5070829;28;953;-30
2022/08/16 12:17:13;;;;;;;;;;;;;;;27.86;36.49;99964.28;5067233;28;1186;-33
2022/08/16 12:19:38;;;;;;;;;;;;;;;27.85;36.79;99966.13;5066997;28;967;-30
2022/08/16 12:22:04;;;;;;;;;;;;;;;27.95;36.13;99959.47;5069563;28;1195;-31
2022/08/16 12:24:29;;;;;;;;;;;;;;;28.03;36.04;99966.56;5073423;28;1087;-29
2022/08/16 12:26:55;;;;;;;;;;;;;;;27.82;36.53;99973.81;5072960;28;2299;-31
2022/08/16 12:29:20;;;;;;;;;;;;;;;27.71;36.29;99964.47;5065798;28;1035;-30
2022/08/16 12:31:47;;;;;;;;;;;;;;;27.75;36.26;99966.53;5073258;28;1906;-30
2022/08/16 12:34:13;;;;;;;;;;;;;;;27.79;35.84;99969.66;5067381;28;1076;-31
2022/08/16 12:36:38;;;;;;;;;;;;;;;27.74;36.13;99969.44;5073852;28;1100;-30
2022/08/16 12:39:03;;;;;;;;;;;;;;;28.08;35.29;99969.44;5070945;28;1008;-31
2022/08/16 12:41:31;;;;;;;;;;;;;;;27.92;35.83;99976.09;5074967;28;977;-31